createdAt,value
2017-06-24T00:01:02.499Z,1009.84
2017-06-24T00:02:11.804Z,1009.81
2017-06-24T00:03:22.036Z,1009.82
2017-06-24T00:04:31.968Z,1009.85
2017-06-24T00:05:41.581Z,1009.86
2017-06-24T00:06:51.830Z,1009.88
2017-06-24T00:08:01.441Z,1009.9
2017-06-24T00:09:11.674Z,1009.89
2017-06-24T00:10:21.914Z,1009.88
2017-06-24T00:11:32.157Z,1009.9
2017-06-24T00:12:42.103Z,1009.92
2017-06-24T00:13:52.030Z,1009.9
2017-06-24T00:15:01.956Z,1009.89
2017-06-24T00:16:12.223Z,1009.87
2017-06-24T00:17:22.464Z,1009.93
2017-06-24T00:18:32.400Z,1009.91
2017-06-24T00:19:42.656Z,1009.96
2017-06-24T00:20:52.898Z,1010.03
2017-06-24T00:22:02.517Z,1010.06
2017-06-24T00:23:11.820Z,1010.06
2017-06-24T00:24:21.751Z,1010.03
2017-06-24T00:25:31.363Z,1010.09
2017-06-24T00:26:41.597Z,1010.09
2017-06-24T00:27:51.835Z,1010.11
2017-06-24T00:29:01.767Z,1010.03
2017-06-24T00:30:12.016Z,1010.04
2017-06-24T00:31:22.259Z,1010.05
2017-06-24T00:32:32.503Z,1009.97
2017-06-24T00:33:42.466Z,1009.94
2017-06-24T00:34:52.698Z,1009.98
2017-06-24T00:36:02.313Z,1009.94
2017-06-24T00:37:12.245Z,1009.95
2017-06-24T00:38:21.863Z,1009.95
2017-06-24T00:39:32.106Z,1009.89
2017-06-24T00:40:42.032Z,1009.93
2017-06-24T00:41:51.991Z,1009.93
2017-06-24T00:43:01.915Z,1009.93
2017-06-24T00:44:11.530Z,1009.93
2017-06-24T00:45:21.459Z,1009.9
2017-06-24T00:46:31.075Z,1009.86
2017-06-24T00:47:41.318Z,1009.8
2017-06-24T00:48:50.937Z,1009.82
2017-06-24T00:50:00.557Z,1009.87
2017-06-24T00:51:10.490Z,1009.89
2017-06-24T00:52:20.416Z,1009.94
2017-06-24T00:53:30.346Z,1010
2017-06-24T00:54:40.586Z,1009.96
2017-06-24T00:55:50.829Z,1009.95
2017-06-24T00:57:00.759Z,1009.96
2017-06-24T00:58:10.378Z,1009.95
2017-06-24T00:59:20.004Z,1009.97
2017-06-24T01:00:30.249Z,1009.94
2017-06-24T01:01:40.519Z,1009.9
2017-06-24T01:02:50.130Z,1009.87
2017-06-24T01:04:00.382Z,1009.88
2017-06-24T01:05:10.311Z,1009.87
2017-06-24T01:06:20.239Z,1009.81
2017-06-24T01:07:30.172Z,1009.78
2017-06-24T01:08:40.107Z,1009.74
2017-06-24T01:09:50.037Z,1009.77
2017-06-24T01:10:59.969Z,1009.82
2017-06-24T01:12:10.236Z,1009.84
2017-06-24T01:13:20.475Z,1009.86
2017-06-24T01:14:30.717Z,1009.85
2017-06-24T01:15:40.963Z,1009.84
2017-06-24T01:16:50.891Z,1009.79
2017-06-24T01:18:01.142Z,1009.78
2017-06-24T01:19:11.393Z,1009.76
2017-06-24T01:20:21.321Z,1009.78
2017-06-24T01:21:31.572Z,1009.77
2017-06-24T01:22:41.193Z,1009.73
2017-06-24T01:23:51.432Z,1009.74
2017-06-24T01:25:01.673Z,1009.77
2017-06-24T01:26:11.937Z,1009.75
2017-06-24T01:27:21.565Z,1009.77
2017-06-24T01:28:31.496Z,1009.75
2017-06-24T01:29:41.425Z,1009.78
2017-06-24T01:30:51.671Z,1009.76
2017-06-24T01:32:01.916Z,1009.75
2017-06-24T01:33:12.153Z,1009.77
2017-06-24T01:34:21.454Z,1009.75
2017-06-24T01:35:31.423Z,1009.75
2017-06-24T01:36:41.666Z,1009.78
2017-06-24T01:37:51.314Z,1009.74
2017-06-24T01:39:01.557Z,1009.74
2017-06-24T01:40:11.798Z,1009.69
2017-06-24T01:41:22.033Z,1009.66
2017-06-24T01:42:31.963Z,1009.64
2017-06-24T01:43:42.223Z,1009.6
2017-06-24T01:44:52.154Z,1009.6
2017-06-24T01:46:02.395Z,1009.58
2017-06-24T01:47:12.011Z,1009.57
2017-06-24T01:48:22.253Z,1009.58
2017-06-24T01:49:32.182Z,1009.55
2017-06-24T01:50:42.427Z,1009.57
2017-06-24T01:51:52.670Z,1009.55
2017-06-24T01:53:02.912Z,1009.58
2017-06-24T01:54:12.845Z,1009.57
2017-06-24T01:55:22.776Z,1009.52
2017-06-24T01:56:32.707Z,1009.57
2017-06-24T01:57:42.015Z,1009.55
2017-06-24T01:58:52.270Z,1009.58
2017-06-24T02:00:02.505Z,1009.52
2017-06-24T02:01:12.435Z,1009.5
2017-06-24T02:02:22.681Z,1009.49
2017-06-24T02:03:32.613Z,1009.5
2017-06-24T02:04:42.857Z,1009.52
2017-06-24T02:05:53.102Z,1009.54
2017-06-24T02:07:03.337Z,1009.56
2017-06-24T02:08:12.942Z,1009.55
2017-06-24T02:09:22.871Z,1009.54
2017-06-24T02:10:33.113Z,1009.51
2017-06-24T02:11:43.358Z,1009.51
2017-06-24T02:12:53.289Z,1009.51
2017-06-24T02:14:03.534Z,1009.52
2017-06-24T02:15:13.147Z,1009.49
2017-06-24T02:16:22.453Z,1009.54
2017-06-24T02:17:32.067Z,1009.53
2017-06-24T02:18:42.312Z,1009.52
2017-06-24T02:19:52.237Z,1009.49
2017-06-24T02:21:02.478Z,1009.51
2017-06-24T02:22:12.720Z,1009.5
2017-06-24T02:23:22.963Z,1009.51
2017-06-24T02:24:33.236Z,1009.51
2017-06-24T02:25:43.493Z,1009.48
2017-06-24T02:26:53.422Z,1009.55
2017-06-24T02:28:03.349Z,1009.5
2017-06-24T02:29:13.280Z,1009.48
2017-06-24T02:30:23.523Z,1009.48
2017-06-24T02:31:33.767Z,1009.5
2017-06-24T02:32:44.008Z,1009.52
2017-06-24T02:33:53.941Z,1009.52
2017-06-24T02:35:04.187Z,1009.49
2017-06-24T02:36:14.128Z,1009.49
2017-06-24T02:37:23.746Z,1009.46
2017-06-24T02:38:33.988Z,1009.46
2017-06-24T02:39:43.927Z,1009.46
2017-06-24T02:40:53.859Z,1009.46
2017-06-24T02:42:03.782Z,1009.42
2017-06-24T02:43:14.020Z,1009.37
2017-06-24T02:44:23.947Z,1009.38
2017-06-24T02:45:33.879Z,1009.38
2017-06-24T02:46:43.813Z,1009.42
2017-06-24T02:47:53.423Z,1009.41
2017-06-24T02:49:03.354Z,1009.43
2017-06-24T02:50:13.289Z,1009.38
2017-06-24T02:51:22.908Z,1009.45
2017-06-24T02:52:33.147Z,1009.43
2017-06-24T02:53:43.393Z,1009.42
2017-06-24T02:54:53.318Z,1009.43
2017-06-24T02:56:03.248Z,1009.42
2017-06-24T02:57:13.174Z,1009.42
2017-06-24T02:58:23.423Z,1009.41
2017-06-24T02:59:33.040Z,1009.42
2017-06-24T03:00:43.286Z,1009.48
2017-06-24T03:01:53.531Z,1009.46
2017-06-24T03:03:03.462Z,1009.43
2017-06-24T03:04:13.395Z,1009.5
2017-06-24T03:05:23.330Z,1009.48
2017-06-24T03:06:33.257Z,1009.5
2017-06-24T03:07:42.898Z,1009.49
2017-06-24T03:08:52.832Z,1009.51
2017-06-24T03:10:02.766Z,1009.48
2017-06-24T03:11:13.005Z,1009.49
2017-06-24T03:12:23.250Z,1009.47
2017-06-24T03:13:33.485Z,1009.57
2017-06-24T03:14:43.727Z,1009.55
2017-06-24T03:15:53.346Z,1009.57
2017-06-24T03:17:03.593Z,1009.52
2017-06-24T03:18:13.213Z,1009.47
2017-06-24T03:19:23.143Z,1009.5
2017-06-24T03:20:33.075Z,1009.5
2017-06-24T03:21:43.323Z,1009.48
2017-06-24T03:22:53.256Z,1009.5
2017-06-24T03:24:03.190Z,1009.51
2017-06-24T03:25:13.120Z,1009.46
2017-06-24T03:26:22.733Z,1009.49
2017-06-24T03:27:32.350Z,1009.56
2017-06-24T03:28:42.604Z,1009.55
2017-06-24T03:29:52.536Z,1009.47
2017-06-24T03:31:02.467Z,1009.5
2017-06-24T03:32:12.739Z,1009.44
2017-06-24T03:33:22.675Z,1009.45
2017-06-24T03:34:32.294Z,1009.49
2017-06-24T03:35:42.550Z,1009.54
2017-06-24T03:36:52.480Z,1009.5
2017-06-24T03:38:02.717Z,1009.58
2017-06-24T03:39:12.635Z,1009.56
2017-06-24T03:40:22.564Z,1009.57
2017-06-24T03:41:32.809Z,1009.48
2017-06-24T03:42:42.751Z,1009.5
2017-06-24T03:43:52.685Z,1009.45
2017-06-24T03:45:02.931Z,1009.49
2017-06-24T03:46:12.237Z,1009.48
2017-06-24T03:47:22.478Z,1009.49
2017-06-24T03:48:32.725Z,1009.52
2017-06-24T03:49:42.342Z,1009.49
2017-06-24T03:50:52.593Z,1009.51
2017-06-24T03:52:02.523Z,1009.49
2017-06-24T03:53:11.831Z,1009.53
2017-06-24T03:54:22.075Z,1009.55
2017-06-24T03:55:32.001Z,1009.52
2017-06-24T03:56:41.622Z,1009.53
2017-06-24T03:57:51.550Z,1009.57
2017-06-24T03:59:01.804Z,1009.51
2017-06-24T04:00:12.049Z,1009.48
2017-06-24T04:01:21.982Z,1009.45
2017-06-24T04:02:31.912Z,1009.5
2017-06-24T04:03:41.533Z,1009.51
2017-06-24T04:04:51.777Z,1009.53
2017-06-24T04:06:01.713Z,1009.63
2017-06-24T04:07:11.952Z,1009.59
2017-06-24T04:08:21.883Z,1009.64
2017-06-24T04:09:31.805Z,1009.62
2017-06-24T04:10:42.049Z,1009.66
2017-06-24T04:11:51.977Z,1009.68
2017-06-24T04:13:01.914Z,1009.69
2017-06-24T04:14:12.157Z,1009.72
2017-06-24T04:15:21.775Z,1009.72
2017-06-24T04:16:31.406Z,1009.74
2017-06-24T04:17:41.334Z,1009.75
2017-06-24T04:18:51.582Z,1009.72
2017-06-24T04:20:01.205Z,1009.77
2017-06-24T04:21:10.514Z,1009.72
2017-06-24T04:22:20.762Z,1009.69
2017-06-24T04:23:31.002Z,1009.71
2017-06-24T04:24:41.240Z,1009.66
2017-06-24T04:25:51.488Z,1009.64
2017-06-24T04:27:01.733Z,1009.65
2017-06-24T04:28:11.354Z,1009.66
2017-06-24T04:29:21.280Z,1009.68
2017-06-24T04:30:31.211Z,1009.75
2017-06-24T04:31:41.131Z,1009.75
2017-06-24T04:32:51.058Z,1009.75
2017-06-24T04:34:00.673Z,1009.73
2017-06-24T04:35:10.924Z,1009.74
2017-06-24T04:36:20.861Z,1009.69
2017-06-24T04:37:30.823Z,1009.7
2017-06-24T04:38:41.070Z,1009.7
2017-06-24T04:39:51.001Z,1009.67
2017-06-24T04:41:01.250Z,1009.69
2017-06-24T04:42:11.181Z,1009.75
2017-06-24T04:43:21.432Z,1009.74
2017-06-24T04:44:31.677Z,1009.74
2017-06-24T04:45:41.613Z,1009.71
2017-06-24T04:46:51.860Z,1009.74
2017-06-24T04:48:02.102Z,1009.75
2017-06-24T04:49:12.032Z,1009.72
2017-06-24T04:50:21.338Z,1009.69
2017-06-24T04:51:31.273Z,1009.7
2017-06-24T04:52:41.515Z,1009.68
2017-06-24T04:53:51.445Z,1009.65
2017-06-24T04:55:01.691Z,1009.63
2017-06-24T04:56:11.936Z,1009.65
2017-06-24T04:57:22.183Z,1009.65
2017-06-24T04:58:32.432Z,1009.66
2017-06-24T04:59:42.679Z,1009.65
2017-06-24T05:00:52.612Z,1009.59
2017-06-24T05:02:02.861Z,1009.59
2017-06-24T05:03:12.800Z,1009.61
2017-06-24T05:04:23.045Z,1009.57
2017-06-24T05:05:33.295Z,1009.56
2017-06-24T05:06:43.537Z,1009.58
2017-06-24T05:07:53.468Z,1009.55
2017-06-24T05:09:03.710Z,1009.51
2017-06-24T05:10:13.950Z,1009.55
2017-06-24T05:11:23.572Z,1009.53
2017-06-24T05:12:32.567Z,1009.52
2017-06-24T05:13:42.183Z,1009.51
2017-06-24T05:14:52.121Z,1009.51
2017-06-24T05:16:02.368Z,1009.53
2017-06-24T05:17:12.614Z,1009.53
2017-06-24T05:18:22.858Z,1009.56
2017-06-24T05:19:33.111Z,1009.54
2017-06-24T05:20:43.350Z,1009.53
2017-06-24T05:21:53.593Z,1009.57
2017-06-24T05:23:03.216Z,1009.54
2017-06-24T05:24:13.154Z,1009.6
2017-06-24T05:25:23.401Z,1009.51
2017-06-24T05:26:33.647Z,1009.57
2017-06-24T05:27:43.884Z,1009.6
2017-06-24T05:28:54.131Z,1009.56
2017-06-24T05:30:04.379Z,1009.58
2017-06-24T05:31:14.313Z,1009.56
2017-06-24T05:32:24.245Z,1009.56
2017-06-24T05:33:34.485Z,1009.56
2017-06-24T05:34:44.414Z,1009.54
2017-06-24T05:35:54.664Z,1009.51
2017-06-24T05:37:04.599Z,1009.54
2017-06-24T05:38:14.529Z,1009.59
2017-06-24T05:39:24.776Z,1009.55
2017-06-24T05:40:35.022Z,1009.5
2017-06-24T05:41:44.951Z,1009.52
2017-06-24T05:42:54.878Z,1009.5
2017-06-24T05:44:04.807Z,1009.55
2017-06-24T05:45:14.734Z,1009.49
2017-06-24T05:46:24.666Z,1009.47
2017-06-24T05:47:34.912Z,1009.47
2017-06-24T05:48:45.156Z,1009.44
2017-06-24T05:49:55.408Z,1009.42
2017-06-24T05:51:05.017Z,1009.45
2017-06-24T05:52:14.949Z,1009.46
2017-06-24T05:53:24.882Z,1009.44
2017-06-24T05:54:35.125Z,1009.48
2017-06-24T05:55:45.056Z,1009.46
2017-06-24T05:56:54.990Z,1009.46
2017-06-24T05:58:05.242Z,1009.5
2017-06-24T05:59:15.177Z,1009.53
2017-06-24T06:00:25.414Z,1009.53
2017-06-24T06:01:35.672Z,1009.54
2017-06-24T06:02:45.611Z,1009.54
2017-06-24T06:03:55.848Z,1009.62
2017-06-24T06:05:06.101Z,1009.61
2017-06-24T06:06:16.343Z,1009.6
2017-06-24T06:07:25.969Z,1009.58
2017-06-24T06:08:35.584Z,1009.56
2017-06-24T06:09:45.513Z,1009.49
2017-06-24T06:10:55.129Z,1009.55
2017-06-24T06:12:05.059Z,1009.51
2017-06-24T06:13:14.992Z,1009.47
2017-06-24T06:14:24.615Z,1009.46
2017-06-24T06:15:34.544Z,1009.48
2017-06-24T06:16:44.475Z,1009.51
2017-06-24T06:17:54.724Z,1009.49
2017-06-24T06:19:04.969Z,1009.47
2017-06-24T06:20:14.265Z,1009.47
2017-06-24T06:21:23.886Z,1009.43
2017-06-24T06:22:33.818Z,1009.47
2017-06-24T06:23:44.056Z,1009.45
2017-06-24T06:24:53.994Z,1009.44
2017-06-24T06:26:04.244Z,1009.43
2017-06-24T06:27:14.490Z,1009.4
2017-06-24T06:28:24.413Z,1009.43
2017-06-24T06:29:34.665Z,1009.4
2017-06-24T06:30:44.593Z,1009.44
2017-06-24T06:31:54.207Z,1009.44
2017-06-24T06:33:04.131Z,1009.41
2017-06-24T06:34:13.750Z,1009.45
2017-06-24T06:35:23.994Z,1009.4
2017-06-24T06:36:33.616Z,1009.44
2017-06-24T06:37:43.545Z,1009.44
2017-06-24T06:38:53.484Z,1009.5
2017-06-24T06:40:03.098Z,1009.47
2017-06-24T06:41:13.023Z,1009.48
2017-06-24T06:42:23.265Z,1009.47
2017-06-24T06:43:33.197Z,1009.52
2017-06-24T06:44:43.123Z,1009.46
2017-06-24T06:45:53.058Z,1009.48
2017-06-24T06:47:02.991Z,1009.5
2017-06-24T06:48:12.954Z,1009.49
2017-06-24T06:49:23.201Z,1009.45
2017-06-24T06:50:33.435Z,1009.53
2017-06-24T06:51:43.047Z,1009.5
2017-06-24T06:52:52.973Z,1009.48
2017-06-24T06:54:03.214Z,1009.46
2017-06-24T06:55:13.137Z,1009.47
2017-06-24T06:56:23.377Z,1009.48
2017-06-24T06:57:33.617Z,1009.45
2017-06-24T06:58:43.545Z,1009.44
2017-06-24T06:59:53.482Z,1009.44
2017-06-24T07:01:03.106Z,1009.43
2017-06-24T07:02:13.350Z,1009.42
2017-06-24T07:03:23.596Z,1009.41
2017-06-24T07:04:32.904Z,1009.43
2017-06-24T07:05:42.839Z,1009.37
2017-06-24T07:06:52.455Z,1009.41
2017-06-24T07:08:02.069Z,1009.43
2017-06-24T07:09:11.694Z,1009.43
2017-06-24T07:10:21.950Z,1009.35
2017-06-24T07:11:32.193Z,1009.34
2017-06-24T07:12:42.115Z,1009.37
2017-06-24T07:13:52.361Z,1009.35
2017-06-24T07:15:02.024Z,1009.47
2017-06-24T07:16:11.951Z,1009.55
2017-06-24T07:17:22.192Z,1009.47
2017-06-24T07:18:32.127Z,1009.5
2017-06-24T07:19:41.119Z,1009.48
2017-06-24T07:20:51.046Z,1009.48
2017-06-24T07:22:00.986Z,1009.46
2017-06-24T07:23:11.234Z,1009.49
2017-06-24T07:24:21.169Z,1009.51
2017-06-24T07:25:31.145Z,1009.49
2017-06-24T07:26:40.760Z,1009.5
2017-06-24T07:27:50.694Z,1009.45
2017-06-24T07:29:00.317Z,1009.47
2017-06-24T07:30:09.934Z,1009.5
2017-06-24T07:31:20.179Z,1009.55
2017-06-24T07:32:30.419Z,1009.51
2017-06-24T07:33:40.356Z,1009.47
2017-06-24T07:34:50.285Z,1009.48
2017-06-24T07:36:00.525Z,1009.51
2017-06-24T07:37:10.771Z,1009.5
2017-06-24T07:38:20.388Z,1009.51
2017-06-24T07:39:30.639Z,1009.43
2017-06-24T07:40:40.886Z,1009.44
2017-06-24T07:41:51.125Z,1009.41
2017-06-24T07:43:01.058Z,1009.45
2017-06-24T07:44:10.985Z,1009.43
2017-06-24T07:45:20.911Z,1009.47
2017-06-24T07:46:30.842Z,1009.45
2017-06-24T07:47:40.458Z,1009.46
2017-06-24T07:48:50.073Z,1009.4
2017-06-24T07:49:59.379Z,1009.4
2017-06-24T07:51:08.995Z,1009.36
2017-06-24T07:52:18.925Z,1009.36
2017-06-24T07:53:28.856Z,1009.34
2017-06-24T07:54:38.782Z,1009.37
2017-06-24T07:55:49.027Z,1009.32
2017-06-24T07:56:58.956Z,1009.39
2017-06-24T07:58:09.198Z,1009.41
2017-06-24T07:59:19.121Z,1009.43
2017-06-24T08:00:29.364Z,1009.43
2017-06-24T08:01:39.621Z,1009.39
2017-06-24T08:02:49.877Z,1009.37
2017-06-24T08:04:00.115Z,1009.36
2017-06-24T08:05:09.733Z,1009.39
2017-06-24T08:06:19.667Z,1009.37
2017-06-24T08:07:29.592Z,1009.39
2017-06-24T08:08:38.897Z,1009.35
2017-06-24T08:09:48.198Z,1009.36
2017-06-24T08:10:58.128Z,1009.38
2017-06-24T08:12:08.055Z,1009.37
2017-06-24T08:13:18.297Z,1009.33
2017-06-24T08:14:28.226Z,1009.33
2017-06-24T08:15:38.159Z,1009.32
2017-06-24T08:16:48.402Z,1009.3
2017-06-24T08:17:58.333Z,1009.28
2017-06-24T08:19:08.256Z,1009.29
2017-06-24T08:20:18.495Z,1009.28
2017-06-24T08:21:28.440Z,1009.26
2017-06-24T08:22:38.693Z,1009.27
2017-06-24T08:23:48.623Z,1009.25
2017-06-24T08:24:58.864Z,1009.33
2017-06-24T08:26:08.795Z,1009.25
2017-06-24T08:27:18.731Z,1009.25
2017-06-24T08:28:28.980Z,1009.27
2017-06-24T08:29:38.921Z,1009.23
2017-06-24T08:30:48.849Z,1009.19
2017-06-24T08:31:59.093Z,1009.16
2017-06-24T08:33:09.025Z,1009.18
2017-06-24T08:34:19.267Z,1009.2
2017-06-24T08:35:29.504Z,1009.2
2017-06-24T08:36:39.750Z,1009.19
2017-06-24T08:37:49.682Z,1009.16
2017-06-24T08:38:59.302Z,1009.16
2017-06-24T08:40:09.547Z,1009.17
2017-06-24T08:41:19.477Z,1009.14
2017-06-24T08:42:28.785Z,1009.18
2017-06-24T08:43:39.025Z,1009.2
2017-06-24T08:44:49.271Z,1009.23
2017-06-24T08:45:58.889Z,1009.19
2017-06-24T08:47:08.510Z,1009.21
2017-06-24T08:48:18.441Z,1009.18
2017-06-24T08:49:28.699Z,1009.12
2017-06-24T08:50:38.629Z,1009.18
2017-06-24T08:51:47.939Z,1009.23
2017-06-24T08:52:57.559Z,1009.22
2017-06-24T08:54:07.497Z,1009.22
2017-06-24T08:55:17.745Z,1009.22
2017-06-24T08:56:27.673Z,1009.22
2017-06-24T08:57:37.603Z,1009.23
2017-06-24T08:58:47.854Z,1009.19
2017-06-24T08:59:58.095Z,1009.21
2017-06-24T09:01:08.032Z,1009.18
2017-06-24T09:02:18.272Z,1009.13
2017-06-24T09:03:27.891Z,1009.13
2017-06-24T09:04:37.819Z,1009.28
2017-06-24T09:05:48.060Z,1009.21
2017-06-24T09:06:58.304Z,1009.17
2017-06-24T09:08:08.542Z,1009.17
2017-06-24T09:09:18.476Z,1009.21
2017-06-24T09:10:28.409Z,1009.2
2017-06-24T09:11:38.647Z,1009.19
2017-06-24T09:12:48.574Z,1009.14
2017-06-24T09:13:58.816Z,1009.18
2017-06-24T09:15:09.061Z,1009.12
2017-06-24T09:16:18.992Z,1009.04
2017-06-24T09:17:29.238Z,1009.08
2017-06-24T09:18:39.168Z,1009.08
2017-06-24T09:19:49.097Z,1009.05
2017-06-24T09:20:58.710Z,1009.03
2017-06-24T09:22:08.983Z,1009.03
2017-06-24T09:23:18.926Z,1008.97
2017-06-24T09:24:28.542Z,1008.97
2017-06-24T09:25:38.162Z,1008.9
2017-06-24T09:26:48.410Z,1008.94
2017-06-24T09:27:58.649Z,1008.94
2017-06-24T09:29:08.894Z,1008.94
2017-06-24T09:30:18.830Z,1008.9
2017-06-24T09:31:29.078Z,1008.97
2017-06-24T09:32:39.319Z,1009.01
2017-06-24T09:33:49.252Z,1008.92
2017-06-24T09:34:59.182Z,1008.87
2017-06-24T09:36:09.449Z,1008.93
2017-06-24T09:37:19.063Z,1008.93
2017-06-24T09:38:28.676Z,1008.94
2017-06-24T09:39:38.608Z,1008.98
2017-06-24T09:40:48.541Z,1008.92
2017-06-24T09:41:58.789Z,1008.92
2017-06-24T09:43:09.034Z,1008.96
2017-06-24T09:44:18.961Z,1008.91
2017-06-24T09:45:29.206Z,1008.92
2017-06-24T09:46:39.139Z,1008.94
2017-06-24T09:47:49.073Z,1008.87
2017-06-24T09:48:59.315Z,1008.88
2017-06-24T09:50:09.261Z,1008.86
2017-06-24T09:51:19.501Z,1008.84
2017-06-24T09:52:29.753Z,1008.86
2017-06-24T09:53:39.683Z,1008.82
2017-06-24T09:54:49.614Z,1008.81
2017-06-24T09:55:59.543Z,1008.84
2017-06-24T09:57:09.185Z,1008.91
2017-06-24T09:58:19.427Z,1008.88
2017-06-24T09:59:29.666Z,1008.92
2017-06-24T10:00:39.598Z,1008.85
2017-06-24T10:01:49.842Z,1008.86
2017-06-24T10:02:59.770Z,1008.84
2017-06-24T10:04:10.022Z,1008.79
2017-06-24T10:05:20.268Z,1008.85
2017-06-24T10:06:30.194Z,1008.78
2017-06-24T10:07:40.436Z,1008.86
2017-06-24T10:08:50.058Z,1008.82
2017-06-24T10:09:59.985Z,1008.82
2017-06-24T10:11:09.929Z,1008.75
2017-06-24T10:12:19.856Z,1008.75
2017-06-24T10:13:29.471Z,1008.71
2017-06-24T10:14:39.715Z,1008.7
2017-06-24T10:15:49.330Z,1008.73
2017-06-24T10:16:59.576Z,1008.75
2017-06-24T10:18:09.818Z,1008.75
2017-06-24T10:19:19.747Z,1008.77
2017-06-24T10:20:29.986Z,1008.74
2017-06-24T10:21:40.228Z,1008.73
2017-06-24T10:22:50.159Z,1008.74
2017-06-24T10:24:00.412Z,1008.78
2017-06-24T10:25:10.050Z,1008.72
2017-06-24T10:26:19.679Z,1008.72
2017-06-24T10:27:29.927Z,1008.72
2017-06-24T10:28:40.169Z,1008.66
2017-06-24T10:29:50.413Z,1008.67
2017-06-24T10:31:00.342Z,1008.68
2017-06-24T10:32:10.590Z,1008.63
2017-06-24T10:33:19.888Z,1008.68
2017-06-24T10:34:29.507Z,1008.71
2017-06-24T10:35:39.440Z,1008.66
2017-06-24T10:36:49.698Z,1008.71
2017-06-24T10:37:59.956Z,1008.7
2017-06-24T10:39:09.886Z,1008.69
2017-06-24T10:40:19.816Z,1008.68
2017-06-24T10:41:30.066Z,1008.69
2017-06-24T10:42:39.995Z,1008.66
2017-06-24T10:43:49.298Z,1008.67
2017-06-24T10:44:59.540Z,1008.66
2017-06-24T10:46:09.787Z,1008.66
2017-06-24T10:47:19.406Z,1008.67
2017-06-24T10:48:29.331Z,1008.67
2017-06-24T10:49:39.250Z,1008.67
2017-06-24T10:50:49.179Z,1008.68
2017-06-24T10:51:59.425Z,1008.71
2017-06-24T10:53:09.360Z,1008.66
2017-06-24T10:54:19.287Z,1008.64
2017-06-24T10:55:29.531Z,1008.64
2017-06-24T10:56:39.779Z,1008.68
2017-06-24T10:57:49.706Z,1008.66
2017-06-24T10:58:59.943Z,1008.66
2017-06-24T11:00:09.873Z,1008.74
2017-06-24T11:01:19.799Z,1008.68
2017-06-24T11:02:29.419Z,1008.68
2017-06-24T11:03:39.364Z,1008.68
2017-06-24T11:04:49.617Z,1008.67
2017-06-24T11:05:59.551Z,1008.68
2017-06-24T11:07:09.172Z,1008.63
2017-06-24T11:08:19.105Z,1008.65
2017-06-24T11:09:29.350Z,1008.62
2017-06-24T11:10:39.279Z,1008.6
2017-06-24T11:11:49.204Z,1008.61
2017-06-24T11:12:59.172Z,1008.65
2017-06-24T11:14:08.801Z,1008.62
2017-06-24T11:15:18.760Z,1008.6
2017-06-24T11:16:29.001Z,1008.58
2017-06-24T11:17:39.242Z,1008.62
2017-06-24T11:18:49.180Z,1008.6
2017-06-24T11:19:58.792Z,1008.6
2017-06-24T11:21:08.718Z,1008.59
2017-06-24T11:22:18.651Z,1008.57
2017-06-24T11:23:28.896Z,1008.63
2017-06-24T11:24:38.830Z,1008.62
2017-06-24T11:25:48.764Z,1008.58
2017-06-24T11:26:58.377Z,1008.6
2017-06-24T11:28:08.618Z,1008.63
2017-06-24T11:29:18.554Z,1008.63
2017-06-24T11:30:28.798Z,1008.69
2017-06-24T11:31:39.039Z,1008.66
2017-06-24T11:32:49.286Z,1008.61
2017-06-24T11:33:59.543Z,1008.61
2017-06-24T11:35:09.782Z,1008.63
2017-06-24T11:36:19.714Z,1008.6
2017-06-24T11:37:29.646Z,1008.67
2017-06-24T11:38:39.574Z,1008.59
2017-06-24T11:39:49.505Z,1008.59
2017-06-24T11:40:59.752Z,1008.57
2017-06-24T11:42:09.375Z,1008.61
2017-06-24T11:43:19.614Z,1008.63
2017-06-24T11:44:29.548Z,1008.63
2017-06-24T11:45:39.783Z,1008.64
2017-06-24T11:46:50.035Z,1008.66
2017-06-24T11:47:59.653Z,1008.65
2017-06-24T11:49:09.273Z,1008.67
2017-06-24T11:50:19.207Z,1008.7
2017-06-24T11:51:29.449Z,1008.71
2017-06-24T11:52:39.691Z,1008.89
2017-06-24T11:53:49.627Z,1008.85
2017-06-24T11:54:59.892Z,1008.81
2017-06-24T11:56:09.821Z,1008.71
2017-06-24T11:57:19.747Z,1008.72
2017-06-24T11:58:29.678Z,1008.68
2017-06-24T11:59:39.608Z,1008.66
2017-06-24T12:00:49.851Z,1008.74
2017-06-24T12:02:00.121Z,1008.84
2017-06-24T12:03:09.746Z,1008.75
2017-06-24T12:04:19.673Z,1008.75
2017-06-24T12:05:29.292Z,1008.73
2017-06-24T12:06:39.537Z,1008.79
2017-06-24T12:07:49.469Z,1008.78
2017-06-24T12:08:59.400Z,1008.77
2017-06-24T12:10:09.025Z,1008.77
2017-06-24T12:11:18.965Z,1008.75
2017-06-24T12:12:28.898Z,1008.82
2017-06-24T12:13:38.829Z,1008.73
2017-06-24T12:14:49.071Z,1008.69
2017-06-24T12:15:59.001Z,1008.7
2017-06-24T12:17:08.615Z,1008.74
2017-06-24T12:18:18.857Z,1008.67
2017-06-24T12:19:28.785Z,1008.63
2017-06-24T12:20:38.091Z,1008.65
2017-06-24T12:21:48.024Z,1008.74
2017-06-24T12:22:57.958Z,1008.7
2017-06-24T12:24:08.207Z,1008.72
2017-06-24T12:25:18.445Z,1008.69
2017-06-24T12:26:28.379Z,1008.64
2017-06-24T12:27:38.657Z,1008.7
2017-06-24T12:28:48.589Z,1008.78
2017-06-24T12:29:58.522Z,1008.79
2017-06-24T12:31:08.454Z,1008.7
2017-06-24T12:32:18.385Z,1008.62
2017-06-24T12:33:28.316Z,1008.65
2017-06-24T12:34:38.249Z,1008.67
2017-06-24T12:35:48.183Z,1008.62
2017-06-24T12:36:58.438Z,1008.62
2017-06-24T12:38:08.369Z,1008.6
2017-06-24T12:39:17.988Z,1008.61
2017-06-24T12:40:27.914Z,1008.7
2017-06-24T12:41:37.844Z,1008.57
2017-06-24T12:42:47.776Z,1008.64
2017-06-24T12:43:57.709Z,1008.59
2017-06-24T12:45:07.641Z,1008.55
2017-06-24T12:46:17.906Z,1008.61
2017-06-24T12:47:28.155Z,1008.58
2017-06-24T12:48:38.407Z,1008.59
2017-06-24T12:49:48.338Z,1008.52
2017-06-24T12:50:57.948Z,1008.56
2017-06-24T12:52:07.878Z,1008.55
2017-06-24T12:53:17.800Z,1008.55
2017-06-24T12:54:28.041Z,1008.57
2017-06-24T12:55:37.971Z,1008.59
2017-06-24T12:56:47.908Z,1008.61
2017-06-24T12:57:57.524Z,1008.54
2017-06-24T12:59:07.160Z,1008.65
2017-06-24T13:00:17.089Z,1008.52
2017-06-24T13:01:26.709Z,1008.54
2017-06-24T13:02:36.325Z,1008.51
2017-06-24T13:03:46.571Z,1008.49
2017-06-24T13:04:56.187Z,1008.49
2017-06-24T13:06:05.519Z,1008.53
2017-06-24T13:07:15.454Z,1008.44
2017-06-24T13:08:25.702Z,1008.45
2017-06-24T13:09:35.316Z,1008.49
2017-06-24T13:10:44.621Z,1008.39
2017-06-24T13:11:54.868Z,1008.47
2017-06-24T13:13:04.798Z,1008.46
2017-06-24T13:14:14.731Z,1008.51
2017-06-24T13:15:24.971Z,1008.42
2017-06-24T13:16:35.208Z,1008.35
2017-06-24T13:17:45.450Z,1008.37
2017-06-24T13:18:55.694Z,1008.33
2017-06-24T13:20:05.624Z,1008.26
2017-06-24T13:21:15.561Z,1008.35
2017-06-24T13:22:25.495Z,1008.22
2017-06-24T13:23:35.429Z,1008.33
2017-06-24T13:24:45.671Z,1008.21
2017-06-24T13:25:55.921Z,1008.23
2017-06-24T13:27:05.881Z,1008.27
2017-06-24T13:28:15.520Z,1008.15
2017-06-24T13:29:25.453Z,1008.19
2017-06-24T13:30:35.383Z,1008.23
2017-06-24T13:31:44.997Z,1008.12
2017-06-24T13:32:54.934Z,1008.21
2017-06-24T13:34:05.212Z,1008.16
2017-06-24T13:35:15.152Z,1008.19
2017-06-24T13:36:25.402Z,1008.14
2017-06-24T13:37:35.332Z,1008.18
2017-06-24T13:38:45.581Z,1008.12
2017-06-24T13:39:55.514Z,1008.14
2017-06-24T13:41:05.761Z,1008.17
2017-06-24T13:42:16.003Z,1008.18
2017-06-24T13:43:26.249Z,1008.11
2017-06-24T13:44:35.559Z,1008.11
2017-06-24T13:45:45.810Z,1008.1
2017-06-24T13:46:55.110Z,1008.1
2017-06-24T13:48:05.045Z,1008.11
2017-06-24T13:49:15.297Z,1008.1
2017-06-24T13:50:25.230Z,1008.05
2017-06-24T13:51:35.160Z,1008
2017-06-24T13:52:45.087Z,1008.05
2017-06-24T13:53:55.334Z,1008.09
2017-06-24T13:55:05.269Z,1008.04
2017-06-24T13:56:15.204Z,1008.02
2017-06-24T13:57:25.451Z,1008.08
2017-06-24T13:58:35.702Z,1008.09
2017-06-24T13:59:45.946Z,1008.13
2017-06-24T14:00:55.889Z,1008.11
2017-06-24T14:02:05.823Z,1008.07
2017-06-24T14:03:16.072Z,1008.07
2017-06-24T14:04:25.718Z,1008.03
2017-06-24T14:05:35.962Z,1008.08
2017-06-24T14:06:45.889Z,1008.05
2017-06-24T14:07:55.503Z,1008.06
2017-06-24T14:09:05.436Z,1008.1
2017-06-24T14:10:15.368Z,1008.04